sensor_id;sensor_type;location;lat;lon;timestamp;pressure;altitude;pressure_sealevel;temperature;humidity
7075;BME280;3578;51.568;6.932;2023-08-06T00:01:55;50773.91;;;-144.14;100.00
7075;BME280;3578;51.568;6.932;2023-08-06T00:04:22;50805.97;;;-144.14;100.00
7075;BME280;3578;51.568;6.932;2023-08-06T00:06:49;50795.94;;;-144.14;100.00
7075;BME280;3578;51.568;6.932;2023-08-06T00:09:16;50769.91;;;-144.14;100.00
7075;BME280;3578;51.568;6.932;2023-08-06T00:11:43;50769.91;;;-144.14;100.00
7075;BME280;3578;51.568;6.932;2023-08-06T00:14:12;50755.91;;;-144.14;100.00
7075;BME280;3578;51.568;6.932;2023-08-06T00:16:43;50741.88;;;-144.14;100.00
7075;BME280;3578;51.568;6.932;2023-08-06T00:19:11;50735.88;;;-144.14;100.00
7075;BME280;3578;51.568;6.932;2023-08-06T00:21:38;50733.88;;;-144.14;100.00
7075;BME280;3578;51.568;6.932;2023-08-06T00:24:05;50717.84;;;-144.14;100.00
7075;BME280;3578;51.568;6.932;2023-08-06T00:26:32;50705.84;;;-144.14;100.00
7075;BME280;3578;51.568;6.932;2023-08-06T00:28:59;50677.78;;;-144.14;100.00
7075;BME280;3578;51.568;6.932;2023-08-06T00:31:26;50653.75;;;-144.14;100.00
7075;BME280;3578;51.568;6.932;2023-08-06T00:33:54;50693.81;;;-144.14;100.00
7075;BME280;3578;51.568;6.932;2023-08-06T00:36:21;50683.81;;;-144.14;100.00
7075;BME280;3578;51.568;6.932;2023-08-06T00:38:48;50669.78;;;-144.14;100.00
7075;BME280;3578;51.568;6.932;2023-08-06T00:41:15;50649.75;;;-144.14;100.00
7075;BME280;3578;51.568;6.932;2023-08-06T00:43:43;50657.78;;;-144.14;100.00
7075;BME280;3578;51.568;6.932;2023-08-06T00:46:10;50669.78;;;-144.14;100.00
7075;BME280;3578;51.568;6.932;2023-08-06T00:48:37;50649.75;;;-144.14;100.00
7075;BME280;3578;51.568;6.932;2023-08-06T00:51:05;50627.72;;;-144.14;100.00
7075;BME280;3578;51.568;6.932;2023-08-06T00:53:33;50633.75;;;-144.14;100.00
7075;BME280;3578;51.568;6.932;2023-08-06T00:56:00;50617.72;;;-144.14;100.00
7075;BME280;3578;51.568;6.932;2023-08-06T00:58:27;50545.63;;;-144.14;100.00
7075;BME280;3578;51.568;6.932;2023-08-06T01:00:54;50531.59;;;-144.14;100.00
7075;BME280;3578;51.568;6.932;2023-08-06T01:03:22;50557.66;;;-144.14;100.00
7075;BME280;3578;51.568;6.932;2023-08-06T01:05:49;50523.59;;;-144.14;100.00
7075;BME280;3578;51.568;6.932;2023-08-06T01:08:30;50499.56;;;-144.14;100.00
7075;BME280;3578;51.568;6.932;2023-08-06T01:11:14;50491.56;;;-144.14;100.00
7075;BME280;3578;51.568;6.932;2023-08-06T01:13:52;50489.56;;;-144.14;100.00
7075;BME280;3578;51.568;6.932;2023-08-06T01:16:21;50395.44;;;-144.14;100.00
7075;BME280;3578;51.568;6.932;2023-08-06T01:18:50;50431.50;;;-144.14;100.00
7075;BME280;3578;51.568;6.932;2023-08-06T01:21:19;50427.47;;;-144.14;100.00
7075;BME280;3578;51.568;6.932;2023-08-06T01:23:47;50349.38;;;-144.14;100.00
7075;BME280;3578;51.568;6.932;2023-08-06T01:26:19;50437.50;;;-144.14;100.00
7075;BME280;3578;51.568;6.932;2023-08-06T01:28:55;50417.47;;;-144.14;100.00
7075;BME280;3578;51.568;6.932;2023-08-06T01:31:28;50405.47;;;-144.14;100.00
7075;BME280;3578;51.568;6.932;2023-08-06T01:33:58;50517.59;;;-144.14;100.00
7075;BME280;3578;51.568;6.932;2023-08-06T01:36:28;50477.53;;;-144.14;100.00
7075;BME280;3578;51.568;6.932;2023-08-06T01:38:57;50515.59;;;-144.14;100.00
7075;BME280;3578;51.568;6.932;2023-08-06T01:41:24;50523.59;;;-144.14;100.00
7075;BME280;3578;51.568;6.932;2023-08-06T01:43:50;50469.53;;;-144.14;100.00
7075;BME280;3578;51.568;6.932;2023-08-06T01:46:17;50473.53;;;-144.14;100.00
7075;BME280;3578;51.568;6.932;2023-08-06T01:48:44;50473.53;;;-144.14;100.00
7075;BME280;3578;51.568;6.932;2023-08-06T01:51:11;50515.59;;;-144.14;100.00
7075;BME280;3578;51.568;6.932;2023-08-06T01:53:40;50469.53;;;-144.14;100.00
7075;BME280;3578;51.568;6.932;2023-08-06T01:56:07;50497.56;;;-144.14;100.00
7075;BME280;3578;51.568;6.932;2023-08-06T01:58:34;50491.56;;;-144.14;100.00
7075;BME280;3578;51.568;6.932;2023-08-06T02:01:01;50457.53;;;-144.14;100.00
7075;BME280;3578;51.568;6.932;2023-08-06T02:03:28;50469.53;;;-144.14;100.00
7075;BME280;3578;51.568;6.932;2023-08-06T02:05:55;50489.56;;;-144.14;100.00
7075;BME280;3578;51.568;6.932;2023-08-06T02:08:22;50507.59;;;-144.14;100.00
7075;BME280;3578;51.568;6.932;2023-08-06T02:10:51;50499.56;;;-144.14;100.00
7075;BME280;3578;51.568;6.932;2023-08-06T02:13:18;50553.63;;;-144.14;100.00
7075;BME280;3578;51.568;6.932;2023-08-06T02:15:45;50561.66;;;-144.14;100.00
7075;BME280;3578;51.568;6.932;2023-08-06T02:18:13;50531.59;;;-144.14;100.00
7075;BME280;3578;51.568;6.932;2023-08-06T02:20:40;50491.56;;;-144.14;100.00
7075;BME280;3578;51.568;6.932;2023-08-06T02:23:08;50499.56;;;-144.14;100.00
7075;BME280;3578;51.568;6.932;2023-08-06T02:25:35;50467.53;;;-144.14;100.00
7075;BME280;3578;51.568;6.932;2023-08-06T02:28:03;50501.56;;;-144.14;100.00
7075;BME280;3578;51.568;6.932;2023-08-06T02:30:30;50525.59;;;-144.14;100.00
7075;BME280;3578;51.568;6.932;2023-08-06T02:32:57;50493.56;;;-144.14;100.00
7075;BME280;3578;51.568;6.932;2023-08-06T02:35:24;50473.53;;;-144.14;100.00
7075;BME280;3578;51.568;6.932;2023-08-06T02:37:51;50457.53;;;-144.14;100.00
7075;BME280;3578;51.568;6.932;2023-08-06T02:40:18;50513.59;;;-144.14;100.00
7075;BME280;3578;51.568;6.932;2023-08-06T02:42:45;50457.53;;;-144.14;100.00
7075;BME280;3578;51.568;6.932;2023-08-06T02:45:13;50477.53;;;-144.14;100.00
7075;BME280;3578;51.568;6.932;2023-08-06T02:47:40;50507.59;;;-144.14;100.00
7075;BME280;3578;51.568;6.932;2023-08-06T02:50:08;50527.59;;;-144.14;100.00
7075;BME280;3578;51.568;6.932;2023-08-06T02:52:35;50509.59;;;-144.14;100.00
7075;BME280;3578;51.568;6.932;2023-08-06T02:55:06;50525.59;;;-144.14;100.00
7075;BME280;3578;51.568;6.932;2023-08-06T02:57:33;50549.63;;;-144.14;100.00
7075;BME280;3578;51.568;6.932;2023-08-06T03:00:00;50509.59;;;-144.14;100.00
7075;BME280;3578;51.568;6.932;2023-08-06T03:02:28;50505.56;;;-144.14;100.00
7075;BME280;3578;51.568;6.932;2023-08-06T03:04:55;50505.56;;;-144.14;100.00
7075;BME280;3578;51.568;6.932;2023-08-06T03:07:22;50477.53;;;-144.14;100.00
7075;BME280;3578;51.568;6.932;2023-08-06T03:09:49;50503.56;;;-144.14;100.00
7075;BME280;3578;51.568;6.932;2023-08-06T03:12:16;50501.56;;;-144.14;100.00
7075;BME280;3578;51.568;6.932;2023-08-06T03:14:43;50471.53;;;-144.14;100.00
7075;BME280;3578;51.568;6.932;2023-08-06T03:17:10;50507.59;;;-144.14;100.00
7075;BME280;3578;51.568;6.932;2023-08-06T03:19:38;50497.56;;;-144.14;100.00
7075;BME280;3578;51.568;6.932;2023-08-06T03:22:05;50461.53;;;-144.14;100.00
7075;BME280;3578;51.568;6.932;2023-08-06T03:24:33;50467.53;;;-144.14;100.00
7075;BME280;3578;51.568;6.932;2023-08-06T03:27:00;50509.59;;;-144.14;100.00
7075;BME280;3578;51.568;6.932;2023-08-06T03:29:27;50495.56;;;-144.14;100.00
7075;BME280;3578;51.568;6.932;2023-08-06T03:31:54;50457.53;;;-144.14;100.00
7075;BME280;3578;51.568;6.932;2023-08-06T03:34:21;50465.53;;;-144.14;100.00
7075;BME280;3578;51.568;6.932;2023-08-06T03:36:49;50481.53;;;-144.14;100.00
7075;BME280;3578;51.568;6.932;2023-08-06T03:39:16;50483.56;;;-144.14;100.00
7075;BME280;3578;51.568;6.932;2023-08-06T03:41:43;50471.53;;;-144.14;100.00
7075;BME280;3578;51.568;6.932;2023-08-06T03:44:10;50485.56;;;-144.14;100.00
7075;BME280;3578;51.568;6.932;2023-08-06T03:46:37;50501.56;;;-144.14;100.00
7075;BME280;3578;51.568;6.932;2023-08-06T03:49:04;50485.56;;;-144.14;100.00
7075;BME280;3578;51.568;6.932;2023-08-06T03:51:31;50473.53;;;-144.14;100.00
7075;BME280;3578;51.568;6.932;2023-08-06T03:53:59;50485.56;;;-144.14;100.00
7075;BME280;3578;51.568;6.932;2023-08-06T03:56:26;50485.56;;;-144.14;100.00
7075;BME280;3578;51.568;6.932;2023-08-06T03:58:53;50489.56;;;-144.14;100.00
7075;BME280;3578;51.568;6.932;2023-08-06T04:01:20;50463.53;;;-144.14;100.00
7075;BME280;3578;51.568;6.932;2023-08-06T04:03:47;50473.53;;;-144.14;100.00
7075;BME280;3578;51.568;6.932;2023-08-06T04:06:14;50461.53;;;-144.14;100.00
7075;BME280;3578;51.568;6.932;2023-08-06T04:08:41;50453.50;;;-144.14;100.00
7075;BME280;3578;51.568;6.932;2023-08-06T04:11:09;50417.47;;;-144.14;100.00
7075;BME280;3578;51.568;6.932;2023-08-06T04:13:36;50451.50;;;-144.14;100.00
7075;BME280;3578;51.568;6.932;2023-08-06T04:16:03;50445.50;;;-144.14;100.00
7075;BME280;3578;51.568;6.932;2023-08-06T04:18:31;50425.47;;;-144.14;100.00
7075;BME280;3578;51.568;6.932;2023-08-06T04:20:58;50365.41;;;-144.14;100.00
7075;BME280;3578;51.568;6.932;2023-08-06T04:23:25;50433.50;;;-144.14;100.00
7075;BME280;3578;51.568;6.932;2023-08-06T04:25:52;50393.44;;;-144.14;100.00
7075;BME280;3578;51.568;6.932;2023-08-06T04:28:20;50369.41;;;-144.14;100.00
7075;BME280;3578;51.568;6.932;2023-08-06T04:30:47;50419.47;;;-144.14;100.00
7075;BME280;3578;51.568;6.932;2023-08-06T04:33:14;50371.41;;;-144.14;100.00
7075;BME280;3578;51.568;6.932;2023-08-06T04:35:41;50369.41;;;-144.14;100.00
7075;BME280;3578;51.568;6.932;2023-08-06T04:38:08;50379.44;;;-144.14;100.00
7075;BME280;3578;51.568;6.932;2023-08-06T04:40:35;50329.38;;;-144.14;100.00
7075;BME280;3578;51.568;6.932;2023-08-06T04:43:02;50383.44;;;-144.14;100.00
7075;BME280;3578;51.568;6.932;2023-08-06T04:45:31;50335.38;;;-144.14;100.00
7075;BME280;3578;51.568;6.932;2023-08-06T04:47:58;50307.34;;;-144.14;100.00
7075;BME280;3578;51.568;6.932;2023-08-06T04:50:25;50275.31;;;-144.14;100.00
7075;BME280;3578;51.568;6.932;2023-08-06T04:52:52;50295.31;;;-144.14;100.00
7075;BME280;3578;51.568;6.932;2023-08-06T04:55:19;50265.28;;;-144.14;100.00
7075;BME280;3578;51.568;6.932;2023-08-06T04:57:45;50293.31;;;-144.14;100.00
7075;BME280;3578;51.568;6.932;2023-08-06T05:00:13;50273.31;;;-144.14;100.00
7075;BME280;3578;51.568;6.932;2023-08-06T05:02:41;50293.31;;;-144.14;100.00
7075;BME280;3578;51.568;6.932;2023-08-06T05:05:08;50317.34;;;-144.14;100.00
7075;BME280;3578;51.568;6.932;2023-08-06T05:07:35;50325.34;;;-144.14;100.00
7075;BME280;3578;51.568;6.932;2023-08-06T05:10:02;50321.34;;;-144.14;100.00
7075;BME280;3578;51.568;6.932;2023-08-06T05:12:30;50293.31;;;-144.14;100.00
7075;BME280;3578;51.568;6.932;2023-08-06T05:14:57;50347.38;;;-144.14;100.00
7075;BME280;3578;51.568;6.932;2023-08-06T05:17:24;50345.38;;;-144.14;100.00
7075;BME280;3578;51.568;6.932;2023-08-06T05:19:52;50341.38;;;-144.14;100.00
7075;BME280;3578;51.568;6.932;2023-08-06T05:22:19;50331.38;;;-144.14;100.00
7075;BME280;3578;51.568;6.932;2023-08-06T05:24:46;50325.34;;;-144.14;100.00
7075;BME280;3578;51.568;6.932;2023-08-06T05:27:13;50331.38;;;-144.14;100.00
7075;BME280;3578;51.568;6.932;2023-08-06T05:29:40;50329.38;;;-144.14;100.00
7075;BME280;3578;51.568;6.932;2023-08-06T05:32:07;50317.34;;;-144.14;100.00
7075;BME280;3578;51.568;6.932;2023-08-06T05:34:34;50353.41;;;-144.14;100.00
7075;BME280;3578;51.568;6.932;2023-08-06T05:37:03;50301.34;;;-144.14;100.00
7075;BME280;3578;51.568;6.932;2023-08-06T05:39:30;50325.34;;;-144.14;100.00
7075;BME280;3578;51.568;6.932;2023-08-06T05:41:57;50367.41;;;-144.14;100.00
7075;BME280;3578;51.568;6.932;2023-08-06T05:44:24;50361.41;;;-144.14;100.00
7075;BME280;3578;51.568;6.932;2023-08-06T05:46:51;50337.38;;;-144.14;100.00
7075;BME280;3578;51.568;6.932;2023-08-06T05:49:19;50351.38;;;-144.14;100.00
7075;BME280;3578;51.568;6.932;2023-08-06T05:51:46;50333.38;;;-144.14;100.00
7075;BME280;3578;51.568;6.932;2023-08-06T05:54:14;50341.38;;;-144.14;100.00
7075;BME280;3578;51.568;6.932;2023-08-06T05:56:41;50341.38;;;-144.14;100.00
7075;BME280;3578;51.568;6.932;2023-08-06T05:59:08;50311.34;;;-144.14;100.00
7075;BME280;3578;51.568;6.932;2023-08-06T06:01:35;50339.38;;;-144.14;100.00
7075;BME280;3578;51.568;6.932;2023-08-06T06:04:02;50367.41;;;-144.14;100.00
7075;BME280;3578;51.568;6.932;2023-08-06T06:06:29;50381.44;;;-144.14;100.00
7075;BME280;3578;51.568;6.932;2023-08-06T06:08:56;50409.47;;;-144.14;100.00
7075;BME280;3578;51.568;6.932;2023-08-06T06:11:24;50473.53;;;-144.14;100.00
7075;BME280;3578;51.568;6.932;2023-08-06T06:13:52;50459.53;;;-144.14;100.00
7075;BME280;3578;51.568;6.932;2023-08-06T06:16:18;50459.53;;;-144.14;100.00
7075;BME280;3578;51.568;6.932;2023-08-06T06:18:45;50519.59;;;-144.14;100.00
7075;BME280;3578;51.568;6.932;2023-08-06T06:21:12;50491.56;;;-144.14;100.00
7075;BME280;3578;51.568;6.932;2023-08-06T06:23:39;50523.59;;;-144.14;100.00
7075;BME280;3578;51.568;6.932;2023-08-06T06:26:06;50557.66;;;-144.14;100.00
7075;BME280;3578;51.568;6.932;2023-08-06T06:28:35;50579.66;;;-144.14;100.00
7075;BME280;3578;51.568;6.932;2023-08-06T06:31:02;50573.66;;;-144.14;100.00
7075;BME280;3578;51.568;6.932;2023-08-06T06:33:29;50593.69;;;-144.14;100.00
7075;BME280;3578;51.568;6.932;2023-08-06T06:35:56;50547.63;;;-144.14;100.00
7075;BME280;3578;51.568;6.932;2023-08-06T06:38:23;50631.72;;;-144.14;100.00
7075;BME280;3578;51.568;6.932;2023-08-06T06:40:57;50717.84;;;-144.14;100.00
7075;BME280;3578;51.568;6.932;2023-08-06T06:43:25;50731.88;;;-144.14;100.00
7075;BME280;3578;51.568;6.932;2023-08-06T06:45:57;50783.94;;;-144.14;100.00
7075;BME280;3578;51.568;6.932;2023-08-06T06:48:26;50844.00;;;-144.14;100.00
7075;BME280;3578;51.568;6.932;2023-08-06T06:50:53;50906.09;;;-144.14;100.00
7075;BME280;3578;51.568;6.932;2023-08-06T06:53:20;50934.13;;;-144.14;100.00
7075;BME280;3578;51.568;6.932;2023-08-06T06:55:52;50934.13;;;-144.14;100.00
7075;BME280;3578;51.568;6.932;2023-08-06T06:58:19;50990.22;;;-144.14;100.00
7075;BME280;3578;51.568;6.932;2023-08-06T07:00:46;51114.38;;;-144.14;100.00
7075;BME280;3578;51.568;6.932;2023-08-06T07:03:15;51148.44;;;-144.14;100.00
7075;BME280;3578;51.568;6.932;2023-08-06T07:05:43;51144.44;;;-144.14;100.00
7075;BME280;3578;51.568;6.932;2023-08-06T07:08:10;51168.47;;;-144.14;100.00
7075;BME280;3578;51.568;6.932;2023-08-06T07:10:38;51184.47;;;-144.14;100.00
7075;BME280;3578;51.568;6.932;2023-08-06T07:13:05;51230.56;;;-144.14;100.00
7075;BME280;3578;51.568;6.932;2023-08-06T07:15:32;51248.56;;;-144.14;100.00
7075;BME280;3578;51.568;6.932;2023-08-06T07:17:59;51238.56;;;-144.14;100.00
7075;BME280;3578;51.568;6.932;2023-08-06T07:20:27;51214.53;;;-144.14;100.00
7075;BME280;3578;51.568;6.932;2023-08-06T07:22:55;51208.50;;;-144.14;100.00
7075;BME280;3578;51.568;6.932;2023-08-06T07:25:21;51300.66;;;-144.14;100.00
7075;BME280;3578;51.568;6.932;2023-08-06T07:27:48;51272.59;;;-144.14;100.00
7075;BME280;3578;51.568;6.932;2023-08-06T07:30:16;51304.66;;;-144.14;100.00
7075;BME280;3578;51.568;6.932;2023-08-06T07:32:43;51352.72;;;-144.14;100.00
7075;BME280;3578;51.568;6.932;2023-08-06T07:35:10;51478.91;;;-144.14;96.35
7075;BME280;3578;51.568;6.932;2023-08-06T07:37:39;51543.00;;;-144.14;96.27
7075;BME280;3578;51.568;6.932;2023-08-06T07:40:07;51585.09;;;-144.14;97.80
7075;BME280;3578;51.568;6.932;2023-08-06T07:42:34;51689.25;;;-144.14;94.17
7075;BME280;3578;51.568;6.932;2023-08-06T07:45:02;51721.28;;;-144.14;94.88
7075;BME280;3578;51.568;6.932;2023-08-06T07:47:31;51663.19;;;-144.14;95.82
7075;BME280;3578;51.568;6.932;2023-08-06T07:49:58;51735.31;;;-144.14;94.14
7075;BME280;3578;51.568;6.932;2023-08-06T07:52:25;51695.25;;;-144.14;95.65
7075;BME280;3578;51.568;6.932;2023-08-06T07:54:54;51709.28;;;-144.14;95.62
7075;BME280;3578;51.568;6.932;2023-08-06T07:57:21;51719.28;;;-144.14;94.24
7075;BME280;3578;51.568;6.932;2023-08-06T07:59:48;51717.28;;;-144.14;94.88
7075;BME280;3578;51.568;6.932;2023-08-06T08:02:15;51715.28;;;-144.14;94.89
7075;BME280;3578;51.568;6.932;2023-08-06T08:04:42;51677.22;;;-144.14;96.63
7075;BME280;3578;51.568;6.932;2023-08-06T08:07:10;51679.22;;;-144.14;95.77
7075;BME280;3578;51.568;6.932;2023-08-06T08:09:37;51599.09;;;-144.14;97.60
7075;BME280;3578;51.568;6.932;2023-08-06T08:12:06;51607.13;;;-144.14;98.60
7075;BME280;3578;51.568;6.932;2023-08-06T08:14:33;51607.13;;;-144.14;99.14
7075;BME280;3578;51.568;6.932;2023-08-06T08:17:02;51543.00;;;-144.14;100.00
7075;BME280;3578;51.568;6.932;2023-08-06T08:19:29;51512.97;;;-144.14;100.00
7075;BME280;3578;51.568;6.932;2023-08-06T08:21:56;51571.06;;;-144.14;100.00
7075;BME280;3578;51.568;6.932;2023-08-06T08:24:23;51579.06;;;-144.14;100.00
7075;BME280;3578;51.568;6.932;2023-08-06T08:26:50;51557.03;;;-144.14;100.00
7075;BME280;3578;51.568;6.932;2023-08-06T08:29:19;51545.00;;;-144.14;100.00
7075;BME280;3578;51.568;6.932;2023-08-06T08:31:46;51494.94;;;-144.14;100.00
7075;BME280;3578;51.568;6.932;2023-08-06T08:34:15;51539.00;;;-144.14;100.00
7075;BME280;3578;51.568;6.932;2023-08-06T08:36:42;51603.09;;;-144.14;99.46
7075;BME280;3578;51.568;6.932;2023-08-06T08:39:09;51619.13;;;-144.14;99.01
7075;BME280;3578;51.568;6.932;2023-08-06T08:41:37;51587.09;;;-144.14;100.00
7075;BME280;3578;51.568;6.932;2023-08-06T08:44:07;51595.09;;;-144.14;100.00
7075;BME280;3578;51.568;6.932;2023-08-06T08:46:37;51623.13;;;-144.14;97.80
7075;BME280;3578;51.568;6.932;2023-08-06T08:49:05;51625.16;;;-144.14;97.62
7075;BME280;3578;51.568;6.932;2023-08-06T08:51:33;51665.22;;;-144.14;98.36
7075;BME280;3578;51.568;6.932;2023-08-06T08:54:03;51681.22;;;-144.14;98.73
7075;BME280;3578;51.568;6.932;2023-08-06T08:56:31;51679.22;;;-144.14;98.69
7075;BME280;3578;51.568;6.932;2023-08-06T08:58:58;51631.16;;;-144.14;100.00
7075;BME280;3578;51.568;6.932;2023-08-06T09:01:25;51623.13;;;-144.14;99.66
7075;BME280;3578;51.568;6.932;2023-08-06T09:03:54;51689.25;;;-144.14;96.14
7075;BME280;3578;51.568;6.932;2023-08-06T09:06:21;51771.38;;;-144.14;94.91
7075;BME280;3578;51.568;6.932;2023-08-06T09:08:56;51809.44;;;-144.14;94.94
7075;BME280;3578;51.568;6.932;2023-08-06T09:11:28;51835.47;;;-144.14;94.71
7075;BME280;3578;51.568;6.932;2023-08-06T09:13:57;51843.50;;;-144.14;95.18
7075;BME280;3578;51.568;6.932;2023-08-06T09:16:25;51917.63;;;-144.14;92.78
7075;BME280;3578;51.568;6.932;2023-08-06T09:18:54;51991.72;;;-144.14;93.72
7075;BME280;3578;51.568;6.932;2023-08-06T09:21:21;51979.72;;;-144.14;94.59
7075;BME280;3578;51.568;6.932;2023-08-06T09:23:48;52009.75;;;-144.14;93.19
7075;BME280;3578;51.568;6.932;2023-08-06T09:26:15;52067.88;;;-144.14;90.49
7075;BME280;3578;51.568;6.932;2023-08-06T09:28:42;52077.88;;;-144.14;91.90
7075;BME280;3578;51.568;6.932;2023-08-06T09:31:09;51987.72;;;-144.14;92.65
7075;BME280;3578;51.568;6.932;2023-08-06T09:33:37;51991.72;;;-144.14;93.45
7075;BME280;3578;51.568;6.932;2023-08-06T09:36:10;51943.66;;;-144.14;94.58
7075;BME280;3578;51.568;6.932;2023-08-06T09:38:39;51901.59;;;-144.14;96.55
7075;BME280;3578;51.568;6.932;2023-08-06T09:41:06;51827.47;;;-144.14;99.03
7075;BME280;3578;51.568;6.932;2023-08-06T09:43:40;51761.34;;;-144.14;100.00
7075;BME280;3578;51.568;6.932;2023-08-06T09:46:12;51743.34;;;-144.14;100.00
7075;BME280;3578;51.568;6.932;2023-08-06T09:48:45;51735.31;;;-144.14;100.00
7075;BME280;3578;51.568;6.932;2023-08-06T09:51:14;51711.28;;;-144.14;100.00
7075;BME280;3578;51.568;6.932;2023-08-06T09:53:41;51643.16;;;-144.14;100.00
7075;BME280;3578;51.568;6.932;2023-08-06T09:56:09;51663.19;;;-144.14;100.00
7075;BME280;3578;51.568;6.932;2023-08-06T09:58:38;51527.00;;;-144.14;100.00
7075;BME280;3578;51.568;6.932;2023-08-06T10:01:05;51627.16;;;-144.14;100.00
7075;BME280;3578;51.568;6.932;2023-08-06T10:03:34;51589.09;;;-144.14;100.00
7075;BME280;3578;51.568;6.932;2023-08-06T10:06:01;51607.13;;;-144.14;100.00
7075;BME280;3578;51.568;6.932;2023-08-06T10:08:33;51607.13;;;-144.14;100.00
7075;BME280;3578;51.568;6.932;2023-08-06T10:11:02;51599.09;;;-144.14;100.00
7075;BME280;3578;51.568;6.932;2023-08-06T10:13:31;51601.09;;;-144.14;100.00
7075;BME280;3578;51.568;6.932;2023-08-06T10:16:00;51699.25;;;-144.14;100.00
7075;BME280;3578;51.568;6.932;2023-08-06T10:18:28;51667.22;;;-144.14;100.00
7075;BME280;3578;51.568;6.932;2023-08-06T10:20:55;51725.31;;;-144.14;100.00
7075;BME280;3578;51.568;6.932;2023-08-06T10:23:35;51711.28;;;-144.14;100.00
7075;BME280;3578;51.568;6.932;2023-08-06T10:26:04;51721.28;;;-144.14;100.00
7075;BME280;3578;51.568;6.932;2023-08-06T10:28:36;51815.44;;;-144.14;100.00
7075;BME280;3578;51.568;6.932;2023-08-06T10:31:03;51779.38;;;-144.14;100.00
7075;BME280;3578;51.568;6.932;2023-08-06T10:33:44;51799.41;;;-144.14;100.00
7075;BME280;3578;51.568;6.932;2023-08-06T10:36:12;51745.34;;;-144.14;100.00
7075;BME280;3578;51.568;6.932;2023-08-06T10:38:48;51757.34;;;-144.14;100.00
7075;BME280;3578;51.568;6.932;2023-08-06T10:41:22;51689.25;;;-144.14;100.00
7075;BME280;3578;51.568;6.932;2023-08-06T10:43:50;51663.19;;;-144.14;100.00
7075;BME280;3578;51.568;6.932;2023-08-06T10:46:27;51587.09;;;-144.14;100.00
7075;BME280;3578;51.568;6.932;2023-08-06T10:48:54;51567.06;;;-144.14;100.00
7075;BME280;3578;51.568;6.932;2023-08-06T10:51:21;51518.97;;;-144.14;100.00
7075;BME280;3578;51.568;6.932;2023-08-06T10:53:50;51490.94;;;-144.14;100.00
7075;BME280;3578;51.568;6.932;2023-08-06T10:56:18;51474.91;;;-144.14;100.00
7075;BME280;3578;51.568;6.932;2023-08-06T10:58:48;51446.88;;;-144.14;100.00
7075;BME280;3578;51.568;6.932;2023-08-06T11:01:16;51462.88;;;-144.14;100.00
7075;BME280;3578;51.568;6.932;2023-08-06T11:03:45;51390.78;;;-144.14;100.00
7075;BME280;3578;51.568;6.932;2023-08-06T11:06:17;51382.78;;;-144.14;100.00
7075;BME280;3578;51.568;6.932;2023-08-06T11:08:50;51380.78;;;-144.14;100.00
7075;BME280;3578;51.568;6.932;2023-08-06T11:11:17;51374.75;;;-144.14;100.00
7075;BME280;3578;51.568;6.932;2023-08-06T11:13:46;51368.75;;;-144.14;100.00
7075;BME280;3578;51.568;6.932;2023-08-06T11:16:15;51332.69;;;-144.14;100.00
7075;BME280;3578;51.568;6.932;2023-08-06T11:18:43;51348.72;;;-144.14;100.00
7075;BME280;3578;51.568;6.932;2023-08-06T11:21:10;51324.69;;;-144.14;100.00
7075;BME280;3578;51.568;6.932;2023-08-06T11:23:38;51288.63;;;-144.14;100.00
7075;BME280;3578;51.568;6.932;2023-08-06T11:26:07;51270.59;;;-144.14;100.00
7075;BME280;3578;51.568;6.932;2023-08-06T11:28:34;51306.66;;;-144.14;100.00
7075;BME280;3578;51.568;6.932;2023-08-06T11:31:01;51288.63;;;-144.14;100.00
7075;BME280;3578;51.568;6.932;2023-08-06T11:33:29;51272.59;;;-144.14;100.00
7075;BME280;3578;51.568;6.932;2023-08-06T11:35:58;51272.59;;;-144.14;100.00
7075;BME280;3578;51.568;6.932;2023-08-06T11:38:25;51270.59;;;-144.14;100.00
7075;BME280;3578;51.568;6.932;2023-08-06T11:40:54;51256.59;;;-144.14;100.00
7075;BME280;3578;51.568;6.932;2023-08-06T11:43:22;51228.53;;;-144.14;100.00
7075;BME280;3578;51.568;6.932;2023-08-06T11:45:50;51236.56;;;-144.14;100.00
7075;BME280;3578;51.568;6.932;2023-08-06T11:48:19;51256.59;;;-144.14;100.00
7075;BME280;3578;51.568;6.932;2023-08-06T11:50:46;51254.59;;;-144.14;100.00
7075;BME280;3578;51.568;6.932;2023-08-06T11:53:14;51242.56;;;-144.14;100.00
7075;BME280;3578;51.568;6.932;2023-08-06T11:55:42;51232.56;;;-144.14;100.00
7075;BME280;3578;51.568;6.932;2023-08-06T11:58:10;51212.53;;;-144.14;100.00
7075;BME280;3578;51.568;6.932;2023-08-06T12:00:39;51240.56;;;-144.14;100.00
7075;BME280;3578;51.568;6.932;2023-08-06T12:03:06;51218.53;;;-144.14;100.00
7075;BME280;3578;51.568;6.932;2023-08-06T12:05:33;51194.50;;;-144.14;100.00
7075;BME280;3578;51.568;6.932;2023-08-06T12:08:02;51214.53;;;-144.14;100.00
7075;BME280;3578;51.568;6.932;2023-08-06T12:10:32;51202.50;;;-144.14;100.00
7075;BME280;3578;51.568;6.932;2023-08-06T12:13:00;51232.56;;;-144.14;100.00
7075;BME280;3578;51.568;6.932;2023-08-06T12:15:28;51274.63;;;-144.14;100.00
7075;BME280;3578;51.568;6.932;2023-08-06T12:17:56;51302.66;;;-144.14;100.00
7075;BME280;3578;51.568;6.932;2023-08-06T12:20:23;51302.66;;;-144.14;100.00
7075;BME280;3578;51.568;6.932;2023-08-06T12:22:51;51294.63;;;-144.14;100.00
7075;BME280;3578;51.568;6.932;2023-08-06T12:25:18;51308.66;;;-144.14;100.00
7075;BME280;3578;51.568;6.932;2023-08-06T12:27:46;51362.75;;;-144.14;100.00
7075;BME280;3578;51.568;6.932;2023-08-06T12:30:13;51314.66;;;-144.14;100.00
7075;BME280;3578;51.568;6.932;2023-08-06T12:32:40;51354.72;;;-144.14;100.00
7075;BME280;3578;51.568;6.932;2023-08-06T12:35:09;51268.59;;;-144.14;100.00
7075;BME280;3578;51.568;6.932;2023-08-06T12:37:37;51268.59;;;-144.14;100.00
7075;BME280;3578;51.568;6.932;2023-08-06T12:40:06;51274.63;;;-144.14;100.00
7075;BME280;3578;51.568;6.932;2023-08-06T12:42:33;51250.56;;;-144.14;100.00
7075;BME280;3578;51.568;6.932;2023-08-06T12:45:00;51218.53;;;-144.14;100.00
7075;BME280;3578;51.568;6.932;2023-08-06T12:47:28;51216.53;;;-144.14;100.00
7075;BME280;3578;51.568;6.932;2023-08-06T12:49:55;51208.50;;;-144.14;100.00
7075;BME280;3578;51.568;6.932;2023-08-06T12:52:23;51168.47;;;-144.14;100.00
7075;BME280;3578;51.568;6.932;2023-08-06T12:54:50;51150.44;;;-144.14;100.00